createdAt,value
2018-09-15T00:02:16.439Z,100552.11
2018-09-15T00:04:44.232Z,100554.97
2018-09-15T00:07:11.967Z,100556.17
2018-09-15T00:09:39.644Z,100558.69
2018-09-15T00:12:07.412Z,100559.92
2018-09-15T00:14:35.129Z,100563.59
2018-09-15T00:17:02.839Z,100563.28
2018-09-15T00:19:30.591Z,100570.91
2018-09-15T00:21:58.273Z,100568.23
2018-09-15T00:24:26.186Z,100572.52
2018-09-15T00:26:54.065Z,100571.20
2018-09-15T00:29:21.744Z,100575.17
2018-09-15T00:31:49.419Z,100579.14
2018-09-15T00:34:17.140Z,100577.48
2018-09-15T00:36:44.817Z,100570.86
2018-09-15T00:39:12.546Z,100572.02
2018-09-15T00:41:40.277Z,100569.23
2018-09-15T00:44:08.163Z,100570.16
2018-09-15T00:46:35.829Z,100574.45
2018-09-15T00:49:03.786Z,100568.44
2018-09-15T00:51:31.469Z,100568.22
2018-09-15T00:53:59.210Z,100564.86
2018-09-15T00:56:26.932Z,100571.78
2018-09-15T00:58:54.642Z,100567.08
2018-09-15T01:01:22.652Z,100569.02
2018-09-15T01:03:50.370Z,100564.00
2018-09-15T01:06:18.080Z,100565.98
2018-09-15T01:08:45.801Z,100571.45
2018-09-15T01:11:13.773Z,100568.39
2018-09-15T01:13:41.654Z,100576.71
2018-09-15T01:16:09.698Z,100580.51
2018-09-15T01:18:37.419Z,100581.42
2018-09-15T01:21:07.151Z,100582.24
2018-09-15T01:23:55.749Z,100580.00
2018-09-15T01:26:38.634Z,100588.35
2018-09-15T01:29:06.567Z,100582.68
2018-09-15T01:31:34.471Z,100580.06
2018-09-15T01:34:02.290Z,100572.45
2018-09-15T01:36:30.124Z,100571.30
2018-09-15T01:38:58.223Z,100576.70
2018-09-15T01:41:25.938Z,100587.47
2018-09-15T01:44:00.878Z,100585.39
2018-09-15T01:46:28.951Z,100583.16
2018-09-15T01:48:56.628Z,100587.40
2018-09-15T01:51:24.427Z,100587.30
2018-09-15T01:53:52.160Z,100592.42
2018-09-15T01:56:19.957Z,100593.41
2018-09-15T01:58:47.966Z,100595.17
2018-09-15T02:01:15.791Z,100593.41
2018-09-15T02:03:43.583Z,100587.80
2018-09-15T02:06:11.390Z,100591.27
2018-09-15T02:08:39.091Z,100578.68
2018-09-15T02:11:06.859Z,100580.58
2018-09-15T02:13:34.667Z,100577.94
2018-09-15T02:16:02.776Z,100581.67
2018-09-15T02:18:30.551Z,100583.26
2018-09-15T02:20:58.271Z,100586.72
2018-09-15T02:23:26.072Z,100585.29
2018-09-15T02:25:53.929Z,100582.55
2018-09-15T02:28:22.257Z,100590.13
2018-09-15T02:30:50.083Z,100595.80
2018-09-15T02:33:17.775Z,100593.08
2018-09-15T02:35:45.843Z,100604.73
2018-09-15T02:38:13.855Z,100601.06
2018-09-15T02:40:41.619Z,100603.25
2018-09-15T02:43:09.463Z,100601.17
2018-09-15T02:45:44.280Z,100598.73
2018-09-15T02:48:12.003Z,100598.31
2018-09-15T02:50:39.749Z,100601.83
2018-09-15T02:53:07.469Z,100599.44
2018-09-15T02:55:35.235Z,100599.53
2018-09-15T02:58:02.979Z,100602.23
2018-09-15T03:00:30.838Z,100608.73
2018-09-15T03:02:58.679Z,100610.41
2018-09-15T03:05:26.399Z,100604.00
2018-09-15T03:07:54.163Z,100608.02
2018-09-15T03:10:22.580Z,100603.44
2018-09-15T03:12:50.319Z,100606.39
2018-09-15T03:15:18.110Z,100614.25
2018-09-15T03:17:46.125Z,100617.03
2018-09-15T03:20:13.848Z,100617.73
2018-09-15T03:22:41.608Z,100613.11
2018-09-15T03:25:09.392Z,100610.36
2018-09-15T03:27:37.086Z,100621.62
2018-09-15T03:30:04.907Z,100623.61
2018-09-15T03:32:32.714Z,100630.10
2018-09-15T03:35:00.441Z,100625.76
2018-09-15T03:37:28.280Z,100626.77
2018-09-15T03:39:56.006Z,100629.30
2018-09-15T03:42:23.775Z,100635.09
2018-09-15T03:44:51.544Z,100634.94
2018-09-15T03:47:19.487Z,100635.64
2018-09-15T03:49:47.240Z,100632.80
2018-09-15T03:52:15.017Z,100636.84
2018-09-15T03:54:42.799Z,100635.95
2018-09-15T03:57:10.546Z,100644.37
2018-09-15T03:59:38.327Z,100646.11
2018-09-15T04:02:06.119Z,100649.04
2018-09-15T04:04:33.883Z,100648.33
2018-09-15T04:07:01.647Z,100657.59
2018-09-15T04:09:29.471Z,100666.33
2018-09-15T04:11:57.185Z,100665.82
2018-09-15T04:14:24.902Z,100662.43
2018-09-15T04:16:52.670Z,100664.63
2018-09-15T04:19:20.376Z,100668.33
2018-09-15T04:21:48.127Z,100665.84
2018-09-15T04:24:15.898Z,100675.55
2018-09-15T04:26:43.665Z,100673.92
2018-09-15T04:29:11.511Z,100678.19
2018-09-15T04:31:39.232Z,100683.34
2018-09-15T04:34:07.214Z,100684.19
2018-09-15T04:36:35.001Z,100683.27
2018-09-15T04:39:04.087Z,100689.55
2018-09-15T04:41:31.854Z,100693.00
2018-09-15T04:43:59.582Z,100698.96
2018-09-15T04:46:27.317Z,100698.98
2018-09-15T04:48:55.245Z,100703.78
2018-09-15T04:51:23.328Z,100712.56
2018-09-15T04:53:51.063Z,100716.02
2018-09-15T04:56:18.774Z,100717.36
2018-09-15T04:58:46.715Z,100715.56
2018-09-15T05:01:14.477Z,100718.06
2018-09-15T05:03:42.244Z,100717.03
2018-09-15T05:06:10.197Z,100724.78
2018-09-15T05:08:37.884Z,100724.30
2018-09-15T05:11:05.720Z,100720.22
2018-09-15T05:13:33.500Z,100716.45
2018-09-15T05:16:01.203Z,100715.31
2018-09-15T05:18:28.900Z,100722.02
2018-09-15T05:20:56.663Z,100718.08
2018-09-15T05:23:24.519Z,100721.03
2018-09-15T05:25:52.394Z,100726.13
2018-09-15T05:28:20.098Z,100731.95
2018-09-15T05:30:47.866Z,100728.83
2018-09-15T05:33:15.664Z,100732.09
2018-09-15T05:35:43.382Z,100724.87
2018-09-15T05:38:11.071Z,100728.74
2018-09-15T05:40:38.883Z,100727.94
2018-09-15T05:43:06.711Z,100734.41
2018-09-15T05:45:34.419Z,100731.98
2018-09-15T05:48:02.307Z,100737.94
2018-09-15T05:50:30.023Z,100746.70
2018-09-15T05:52:57.775Z,100742.77
2018-09-15T05:55:25.535Z,100747.67
2018-09-15T05:57:53.316Z,100749.17
2018-09-15T06:00:21.544Z,100750.16
2018-09-15T06:02:49.263Z,100755.06
2018-09-15T06:05:17.044Z,100763.16
2018-09-15T06:07:45.440Z,100762.16
2018-09-15T06:10:13.146Z,100762.84
2018-09-15T06:12:40.894Z,100775.20
2018-09-15T06:15:08.792Z,100771.38
2018-09-15T06:17:36.527Z,100769.88
2018-09-15T06:20:04.640Z,100776.09
2018-09-15T06:22:32.367Z,100769.49
2018-09-15T06:25:00.090Z,100767.69
2018-09-15T06:27:27.827Z,100769.80
2018-09-15T06:29:55.908Z,100772.25
2018-09-15T06:32:23.610Z,100775.34
2018-09-15T06:34:51.339Z,100781.74
2018-09-15T06:37:19.046Z,100783.31
2018-09-15T06:39:46.774Z,100782.16
2018-09-15T06:42:14.937Z,100791.31
2018-09-15T06:44:42.646Z,100786.80
2018-09-15T06:47:10.343Z,100794.83
2018-09-15T06:49:38.159Z,100797.27
2018-09-15T06:52:05.885Z,100798.08
2018-09-15T06:54:33.668Z,100804.15
2018-09-15T06:57:01.386Z,100803.88
2018-09-15T06:59:29.139Z,100802.95
2018-09-15T07:01:56.911Z,100807.18
2018-09-15T07:04:24.635Z,100808.91
2018-09-15T07:06:52.363Z,100811.55
2018-09-15T07:09:20.123Z,100809.86
2018-09-15T07:11:47.962Z,100807.13
2018-09-15T07:14:15.712Z,100807.75
2018-09-15T07:16:43.519Z,100810.80
2018-09-15T07:19:11.239Z,100809.93
2018-09-15T07:21:39.090Z,100807.91
2018-09-15T07:24:06.923Z,100805.31
2018-09-15T07:26:34.722Z,100808.04
2018-09-15T07:29:02.817Z,100812.59
2018-09-15T07:31:33.461Z,100817.88
2018-09-15T07:34:01.178Z,100819.12
2018-09-15T07:36:28.978Z,100822.84
2018-09-15T07:38:56.887Z,100828.47
2018-09-15T07:41:24.695Z,100824.66
2018-09-15T07:43:52.844Z,100823.58
2018-09-15T07:46:20.776Z,100830.00
2018-09-15T07:48:48.591Z,100833.13
2018-09-15T07:51:16.332Z,100824.72
2018-09-15T07:53:44.171Z,100825.12
2018-09-15T07:56:11.979Z,100827.56
2018-09-15T07:58:39.932Z,100825.68
2018-09-15T08:01:07.881Z,100832.04
2018-09-15T08:03:37.031Z,100831.02
2018-09-15T08:06:04.911Z,100826.93
2018-09-15T08:08:32.683Z,100830.24
2018-09-15T08:11:00.471Z,100828.14
2018-09-15T08:13:28.291Z,100829.84
2018-09-15T08:15:56.227Z,100827.95
2018-09-15T08:18:23.933Z,100830.52
2018-09-15T08:20:51.699Z,100833.67
2018-09-15T08:23:19.454Z,100836.84
2018-09-15T08:25:47.360Z,100839.33
2018-09-15T08:28:15.376Z,100833.14
2018-09-15T08:30:43.799Z,100840.43
2018-09-15T08:33:11.521Z,100846.46
2018-09-15T08:35:39.250Z,100839.34
2018-09-15T08:38:07.024Z,100840.39
2018-09-15T08:40:34.736Z,100832.97
2018-09-15T08:43:02.707Z,100841.72
2018-09-15T08:45:30.835Z,100841.55
2018-09-15T08:47:58.560Z,100839.92
2018-09-15T08:50:26.359Z,100840.09
2018-09-15T08:52:54.052Z,100832.84
2018-09-15T08:55:21.787Z,100842.98
2018-09-15T08:57:49.801Z,100832.60
2018-09-15T09:00:17.983Z,100839.70
2018-09-15T09:02:46.445Z,100839.66
2018-09-15T09:05:14.495Z,100834.59
2018-09-15T09:07:42.265Z,100829.18
2018-09-15T09:10:10.513Z,100837.67
2018-09-15T09:12:38.222Z,100833.53
2018-09-15T09:15:06.005Z,100838.61
2018-09-15T09:17:33.727Z,100843.61
2018-09-15T09:20:01.824Z,100839.95
2018-09-15T09:22:29.627Z,100844.84
2018-09-15T09:24:57.686Z,100830.59
2018-09-15T09:27:25.533Z,100838.20
2018-09-15T09:29:53.367Z,100839.84
2018-09-15T09:32:21.209Z,100838.47
2018-09-15T09:34:48.977Z,100836.25
2018-09-15T09:37:16.865Z,100840.55
2018-09-15T09:39:44.742Z,100835.48
2018-09-15T09:42:12.540Z,100832.27
2018-09-15T09:44:40.315Z,100832.99
2018-09-15T09:47:08.196Z,100833.28
2018-09-15T09:49:35.886Z,100836.11
2018-09-15T09:52:04.534Z,100832.54
2018-09-15T09:54:32.275Z,100832.11
2018-09-15T09:56:59.981Z,100833.94
2018-09-15T09:59:27.770Z,100832.30
2018-09-15T10:02:02.346Z,100830.63
2018-09-15T10:04:30.799Z,100832.00
2018-09-15T10:06:58.636Z,100840.14
2018-09-15T10:09:26.392Z,100828.89
2018-09-15T10:11:54.135Z,100836.01
2018-09-15T10:14:21.927Z,100827.28
2018-09-15T10:16:49.634Z,100824.55
2018-09-15T10:19:17.511Z,100834.03
2018-09-15T10:21:45.222Z,100839.75
2018-09-15T10:24:13.035Z,100831.06
2018-09-15T10:26:40.844Z,100823.39
2018-09-15T10:29:08.650Z,100820.00
2018-09-15T10:31:36.488Z,100815.53
2018-09-15T10:34:04.263Z,100818.08
2018-09-15T10:36:31.999Z,100825.24
2018-09-15T10:38:59.781Z,100831.45
2018-09-15T10:41:27.585Z,100826.23
2018-09-15T10:43:55.384Z,100820.81
2018-09-15T10:46:23.195Z,100833.11
2018-09-15T10:48:51.044Z,100834.17
2018-09-15T10:51:18.879Z,100837.40
2018-09-15T10:53:46.568Z,100837.61
2018-09-15T10:56:14.384Z,100829.47
2018-09-15T10:58:42.259Z,100814.70
2018-09-15T11:01:09.998Z,100822.92
2018-09-15T11:03:37.755Z,100825.53
2018-09-15T11:06:05.511Z,100822.27
2018-09-15T11:08:33.324Z,100818.81
2018-09-15T11:11:01.202Z,100815.38
2018-09-15T11:13:29.335Z,100817.81
2018-09-15T11:16:03.787Z,100815.06
2018-09-15T11:18:31.523Z,100823.44
2018-09-15T11:20:59.427Z,100817.17
2018-09-15T11:23:27.179Z,100812.87
2018-09-15T11:25:54.919Z,100812.66
2018-09-15T11:28:22.659Z,100812.04
2018-09-15T11:30:50.487Z,100807.84
2018-09-15T11:33:18.211Z,100816.67
2018-09-15T11:35:46.019Z,100812.73
2018-09-15T11:38:13.751Z,100817.34
2018-09-15T11:40:41.515Z,100810.05
2018-09-15T11:43:09.459Z,100812.02
2018-09-15T11:45:37.559Z,100803.64
2018-09-15T11:48:05.575Z,100809.46
2018-09-15T11:50:33.482Z,100811.03
2018-09-15T11:53:01.267Z,100801.83
2018-09-15T11:55:29.090Z,100800.70
2018-09-15T11:57:56.822Z,100799.91
2018-09-15T12:00:27.040Z,100799.29
2018-09-15T12:02:54.730Z,100802.87
2018-09-15T12:05:22.826Z,100804.60
2018-09-15T12:08:02.552Z,100805.69
2018-09-15T12:10:30.423Z,100800.11
2018-09-15T12:12:58.271Z,100795.46
2018-09-15T12:15:26.145Z,100801.77
2018-09-15T12:17:53.845Z,100797.64
2018-09-15T12:20:21.661Z,100796.42
2018-09-15T12:22:49.343Z,100788.83
2018-09-15T12:25:17.215Z,100784.52
2018-09-15T12:27:45.149Z,100786.06
2018-09-15T12:30:12.843Z,100787.80
2018-09-15T12:32:40.618Z,100779.30
2018-09-15T12:35:08.407Z,100779.75
2018-09-15T12:37:36.214Z,100792.44
2018-09-15T12:40:04.334Z,100781.83
2018-09-15T12:42:32.047Z,100784.30
2018-09-15T12:45:00.066Z,100772.30
2018-09-15T12:47:27.787Z,100774.83
2018-09-15T12:49:55.543Z,100769.34
2018-09-15T12:52:23.288Z,100770.85
2018-09-15T12:54:50.967Z,100771.45
2018-09-15T12:57:18.778Z,100775.04
2018-09-15T12:59:46.500Z,100760.84
2018-09-15T13:02:14.197Z,100767.83
2018-09-15T13:04:41.987Z,100765.87
2018-09-15T13:07:09.736Z,100758.94
2018-09-15T13:09:37.564Z,100762.94
2018-09-15T13:12:05.404Z,100758.80
2018-09-15T13:14:33.108Z,100757.69
2018-09-15T13:17:00.860Z,100756.69
2018-09-15T13:19:28.598Z,100762.72
2018-09-15T13:21:56.312Z,100759.47
2018-09-15T13:24:24.043Z,100755.03
2018-09-15T13:26:51.776Z,100753.90
2018-09-15T13:29:19.599Z,100766.23
2018-09-15T13:31:47.395Z,100754.52
2018-09-15T13:34:15.175Z,100751.58
2018-09-15T13:36:42.921Z,100747.94
2018-09-15T13:39:14.699Z,100746.80
2018-09-15T13:41:42.378Z,100751.50
2018-09-15T13:44:10.099Z,100743.88
2018-09-15T13:46:37.853Z,100745.66
2018-09-15T13:49:06.140Z,100749.83
2018-09-15T13:51:33.978Z,100738.34
2018-09-15T13:54:01.690Z,100739.57
2018-09-15T13:56:29.420Z,100740.52
2018-09-15T13:58:57.398Z,100734.45
2018-09-15T14:01:25.094Z,100731.64
2018-09-15T14:03:52.855Z,100731.30
2018-09-15T14:06:20.909Z,100726.95
2018-09-15T14:08:48.865Z,100726.88
2018-09-15T14:11:16.572Z,100730.98
2018-09-15T14:13:44.308Z,100713.58
2018-09-15T14:16:12.505Z,100725.81
2018-09-15T14:18:40.280Z,100724.61
2018-09-15T14:21:08.202Z,100721.08
2018-09-15T14:23:35.902Z,100719.64
2018-09-15T14:26:03.641Z,100718.07
2018-09-15T14:28:31.485Z,100719.09
2018-09-15T14:30:59.177Z,100714.34
2018-09-15T14:34:01.625Z,100721.23
2018-09-15T14:36:34.266Z,100716.60
2018-09-15T14:39:03.339Z,100716.23
2018-09-15T14:41:31.135Z,100715.58
2018-09-15T14:47:02.082Z,100712.22
2018-09-15T14:49:29.857Z,100701.91
2018-09-15T14:51:57.578Z,100700.66
2018-09-15T14:54:25.324Z,100708.42
2018-09-15T14:56:53.015Z,100710.19
2018-09-15T14:59:20.792Z,100710.25
2018-09-15T15:01:48.587Z,100710.60
2018-09-15T15:04:16.306Z,100704.43
2018-09-15T15:06:44.073Z,100707.52
2018-09-15T15:09:11.898Z,100706.59
2018-09-15T15:11:39.971Z,100704.22
2018-09-15T15:14:08.234Z,100706.20
2018-09-15T15:16:35.977Z,100697.80
2018-09-15T15:19:03.747Z,100698.86
2018-09-15T15:21:31.772Z,100693.30
2018-09-15T15:23:59.535Z,100697.28
2018-09-15T15:26:27.361Z,100699.97
2018-09-15T15:28:55.035Z,100703.23
2018-09-15T15:31:22.828Z,100695.58
2018-09-15T15:33:50.691Z,100695.09
2018-09-15T15:36:18.407Z,100693.61
2018-09-15T15:38:46.117Z,100699.23
2018-09-15T15:41:13.880Z,100693.76
2018-09-15T15:43:42.046Z,100695.23
2018-09-15T15:46:09.831Z,100688.13
2018-09-15T15:48:37.559Z,100694.91
2018-09-15T15:51:05.308Z,100695.32
2018-09-15T15:53:33.058Z,100702.38
2018-09-15T15:56:00.784Z,100704.31
2018-09-15T15:58:28.588Z,100702.53
2018-09-15T16:00:56.209Z,100713.80
2018-09-15T16:03:24.413Z,100711.19
2018-09-15T16:05:52.137Z,100712.75
2018-09-15T16:08:19.831Z,100710.02
2018-09-15T16:10:47.576Z,100707.28
2018-09-15T16:13:15.330Z,100712.16
2018-09-15T16:15:43.261Z,100712.09
2018-09-15T16:18:11.076Z,100714.45
2018-09-15T16:20:38.802Z,100713.11
2018-09-15T16:23:06.889Z,100723.55
2018-09-15T16:25:34.663Z,100716.10
2018-09-15T16:28:02.784Z,100720.23
2018-09-15T16:30:30.629Z,100721.56
2018-09-15T16:32:58.279Z,100716.98
2018-09-15T16:35:26.149Z,100713.96
2018-09-15T16:37:54.023Z,100716.23
2018-09-15T16:40:21.967Z,100714.77
2018-09-15T16:42:49.877Z,100716.10
2018-09-15T16:45:17.750Z,100711.13
2018-09-15T16:47:45.508Z,100708.05
2018-09-15T16:50:13.504Z,100715.00
2018-09-15T16:52:41.337Z,100717.78
2018-09-15T16:55:09.276Z,100720.50
2018-09-15T16:57:37.026Z,100724.98
2018-09-15T17:00:04.915Z,100723.70
2018-09-15T17:02:32.692Z,100725.66
2018-09-15T17:05:00.839Z,100729.18
2018-09-15T17:07:28.691Z,100728.89
2018-09-15T17:09:56.584Z,100729.97
2018-09-15T17:12:24.387Z,100737.66
2018-09-15T17:14:52.182Z,100737.80
2018-09-15T17:17:20.062Z,100736.28
2018-09-15T17:19:47.834Z,100734.36
2018-09-15T17:22:15.787Z,100739.70
2018-09-15T17:24:43.504Z,100745.05
2018-09-15T17:27:11.335Z,100749.09
2018-09-15T17:29:39.121Z,100745.24
2018-09-15T17:32:07.276Z,100748.60
2018-09-15T17:34:35.139Z,100750.98
2018-09-15T17:37:04.508Z,100749.06
2018-09-15T17:39:32.328Z,100758.77
2018-09-15T17:42:00.166Z,100754.30
2018-09-15T17:44:27.910Z,100761.46
2018-09-15T17:46:55.708Z,100757.58
2018-09-15T17:49:23.744Z,100761.57
2018-09-15T17:51:52.499Z,100760.45
2018-09-15T17:54:20.293Z,100762.30
2018-09-15T17:56:48.137Z,100769.02
2018-09-15T17:59:16.128Z,100766.27
2018-09-15T18:01:44.102Z,100778.71
2018-09-15T18:04:11.880Z,100772.03
2018-09-15T18:06:39.764Z,100781.10
2018-09-15T18:09:08.410Z,100782.39
2018-09-15T18:11:36.448Z,100775.52
2018-09-15T18:14:04.223Z,100788.97
2018-09-15T18:16:32.130Z,100784.86
2018-09-15T18:18:59.970Z,100784.53
2018-09-15T18:21:27.716Z,100789.80
2018-09-15T18:23:55.593Z,100792.11
2018-09-15T18:26:23.384Z,100791.78
2018-09-15T18:28:51.159Z,100785.22
2018-09-15T18:31:18.990Z,100784.33
2018-09-15T18:33:46.832Z,100784.50
2018-09-15T18:36:14.574Z,100789.25
2018-09-15T18:38:42.335Z,100792.98
2018-09-15T18:41:10.129Z,100798.23
2018-09-15T18:43:37.962Z,100792.83
2018-09-15T18:46:05.751Z,100796.45
2018-09-15T18:48:33.561Z,100801.75
2018-09-15T18:51:01.768Z,100800.84
2018-09-15T18:53:29.731Z,100802.77
2018-09-15T18:55:57.589Z,100803.72
2018-09-15T18:58:25.407Z,100803.47
2018-09-15T19:00:53.201Z,100804.42
2018-09-15T19:03:21.054Z,100810.92
2018-09-15T19:05:48.852Z,100800.14
2018-09-15T19:08:16.647Z,100803.09
2018-09-15T19:10:44.531Z,100800.77
2018-09-15T19:13:12.607Z,100811.85
2018-09-15T19:15:40.710Z,100811.85
2018-09-15T19:18:08.471Z,100812.55
2018-09-15T19:20:36.280Z,100818.72
2018-09-15T19:23:04.318Z,100817.67
2018-09-15T19:25:32.047Z,100819.05
2018-09-15T19:28:00.051Z,100823.53
2018-09-15T19:30:27.808Z,100822.80
2018-09-15T19:32:55.532Z,100823.47
2018-09-15T19:35:23.637Z,100822.22
2018-09-15T19:37:51.327Z,100821.56
2018-09-15T19:40:19.717Z,100821.84
2018-09-15T19:42:47.476Z,100818.22
2018-09-15T19:45:15.380Z,100820.29
2018-09-15T19:47:43.391Z,100826.47
2018-09-15T19:50:11.263Z,100818.89
2018-09-15T19:52:39.095Z,100823.24
2018-09-15T19:55:07.024Z,100821.45
2018-09-15T19:57:35.016Z,100826.81
2018-09-15T20:00:02.919Z,100822.16
2018-09-15T20:02:30.689Z,100824.33
2018-09-15T20:04:58.617Z,100828.88
2018-09-15T20:07:26.384Z,100825.95
2018-09-15T20:09:54.244Z,100824.52
2018-09-15T20:12:22.116Z,100817.25
2018-09-15T20:14:50.000Z,100825.05
2018-09-15T20:17:16.414Z,100820.16
2018-09-15T20:19:42.958Z,100822.64
2018-09-15T20:22:10.716Z,100829.13
2018-09-15T20:24:38.844Z,100823.14
2018-09-15T20:27:06.640Z,100827.89
2018-09-15T20:29:34.462Z,100825.28
2018-09-15T20:32:02.486Z,100825.19
2018-09-15T20:34:30.371Z,100828.46
2018-09-15T20:36:58.228Z,100826.39
2018-09-15T20:39:25.999Z,100825.48
2018-09-15T20:41:53.888Z,100825.64
2018-09-15T20:44:21.682Z,100820.52
2018-09-15T20:46:49.651Z,100824.06
2018-09-15T20:49:17.482Z,100829.34
2018-09-15T20:51:45.246Z,100825.38
2018-09-15T20:54:13.066Z,100822.46
2018-09-15T20:56:40.969Z,100819.54
2018-09-15T20:59:08.693Z,100826.14
2018-09-15T21:01:37.064Z,100830.11
2018-09-15T21:04:04.869Z,100828.66
2018-09-15T21:06:32.608Z,100831.99
2018-09-15T21:09:00.346Z,100833.34
2018-09-15T21:11:28.067Z,100827.25
2018-09-15T21:13:55.762Z,100831.71
2018-09-15T21:16:23.511Z,100832.18
2018-09-15T21:18:51.282Z,100827.91
2018-09-15T21:21:18.971Z,100817.56
2018-09-15T21:23:46.700Z,100827.81
2018-09-15T21:26:14.408Z,100829.78
2018-09-15T21:28:42.154Z,100823.16
2018-09-15T21:31:09.887Z,100826.02
2018-09-15T21:33:37.597Z,100822.77
2018-09-15T21:36:05.828Z,100824.47
2018-09-15T21:38:33.561Z,100824.28
2018-09-15T21:41:01.314Z,100818.50
2018-09-15T21:43:29.118Z,100823.46
2018-09-15T21:45:56.959Z,100823.44
2018-09-15T21:48:24.692Z,100827.84
2018-09-15T21:50:52.447Z,100826.89
2018-09-15T21:53:20.175Z,100834.53
2018-09-15T21:55:47.912Z,100838.02
2018-09-15T21:58:15.621Z,100832.98
2018-09-15T22:00:43.423Z,100831.68
2018-09-15T22:03:11.195Z,100832.31
2018-09-15T22:05:38.963Z,100829.86
2018-09-15T22:08:06.703Z,100830.55
2018-09-15T22:10:34.553Z,100830.89
2018-09-15T22:13:02.369Z,100842.95
2018-09-15T22:15:30.078Z,100838.66
2018-09-15T22:17:58.331Z,100834.53
2018-09-15T22:20:26.411Z,100843.14
2018-09-15T22:22:54.152Z,100841.50
2018-09-15T22:25:21.983Z,100833.11
2018-09-15T22:27:49.775Z,100841.20
2018-09-15T22:30:17.663Z,100838.21
2018-09-15T22:32:45.464Z,100842.80
2018-09-15T22:35:13.182Z,100835.59
2018-09-15T22:37:40.975Z,100836.09
2018-09-15T22:40:09.870Z,100834.98
2018-09-15T22:42:37.595Z,100836.16
2018-09-15T22:45:05.786Z,100833.42
2018-09-15T22:47:33.623Z,100832.80
2018-09-15T22:50:01.636Z,100831.05
2018-09-15T22:52:29.387Z,100833.56
2018-09-15T22:54:57.151Z,100826.31
2018-09-15T22:57:24.896Z,100823.04
2018-09-15T22:59:53.024Z,100827.99
2018-09-15T23:02:20.719Z,100828.81
2018-09-15T23:04:48.450Z,100827.17
2018-09-15T23:07:16.340Z,100826.98
2018-09-15T23:09:44.127Z,100824.16
2018-09-15T23:12:11.822Z,100823.50
2018-09-15T23:14:39.528Z,100822.50
2018-09-15T23:17:07.272Z,100816.59
2018-09-15T23:19:35.034Z,100814.78
2018-09-15T23:22:02.848Z,100813.67
2018-09-15T23:24:30.667Z,100815.64
2018-09-15T23:26:58.379Z,100806.78
2018-09-15T23:29:26.174Z,100803.88
2018-09-15T23:31:53.909Z,100798.92
2018-09-15T23:34:21.774Z,100803.33
2018-09-15T23:36:49.842Z,100793.28
2018-09-15T23:39:17.671Z,100792.73
2018-09-15T23:41:45.419Z,100789.64
2018-09-15T23:44:13.466Z,100784.20
2018-09-15T23:46:41.235Z,100783.92
2018-09-15T23:49:09.052Z,100782.11
2018-09-15T23:51:37.006Z,100784.11
2018-09-15T23:54:04.710Z,100783.12
2018-09-15T23:56:32.509Z,100780.86
2018-09-15T23:59:00.226Z,100776.27
